Time;durP1;ratioP1;P1;durP2;ratioP2;P2;SDS_P1;SDS_P2;PMS_P1;PMS_P2;Temp;Humidity;BMP_temperature;BMP_pressure;BME280_temperature;BME280_humidity;BME280_pressure;Samples;Min_cycle;Max_cycle;Signal;HPM_P1;HPM_P2
2023/06/21 00:00:41;;;;;;;0.10;0.10;;;;;;;12.23;67.99;99762.50;4908415;29;20059;-72
2023/06/21 00:03:07;;;;;;;0.08;0.08;;;;;;;12.18;67.96;99757.88;4890072;29;20448;-72
2023/06/21 00:05:38;;;;;;;0.10;0.10;;;;;;;12.17;67.00;99760.88;4921619;29;20051;-72
2023/06/21 00:08:07;;;;;;;0.05;0.05;;;;;;;12.13;65.10;99751.59;4922695;29;20040;-72
2023/06/21 00:10:33;;;;;;;0.10;0.10;;;;;;;12.20;64.60;99760.34;4890867;29;20074;-73
2023/06/21 00:13:00;;;;;;;0.10;0.10;;;;;;;12.22;64.38;99763.59;4890747;29;20107;-72
2023/06/21 00:15:27;;;;;;;0.10;0.10;;;;;;;12.24;64.04;99768.78;4907459;29;20062;-73
2023/06/21 00:17:53;;;;;;;0.10;0.10;;;;;;;12.28;63.11;99769.88;4908080;29;20051;-72
2023/06/21 00:20:19;;;;;;;0.10;0.10;;;;;;;12.30;62.97;99773.13;4907332;29;20059;-71
2023/06/21 00:22:47;;;;;;;0.00;0.00;;;;;;;12.27;64.09;99771.78;4906972;29;20082;-73
2023/06/21 00:25:14;;;;;;;0.10;0.10;;;;;;;12.20;65.26;99771.28;4906394;29;20135;-72
2023/06/21 00:27:42;;;;;;;0.10;0.10;;;;;;;12.22;64.14;99777.31;4908851;29;20084;-73
2023/06/21 00:30:09;;;;;;;0.03;0.03;;;;;;;12.24;63.17;99788.78;4904627;29;20056;-73
2023/06/21 00:32:36;;;;;;;;;;;;;;;12.30;61.68;99784.09;4906880;29;20511;-73
2023/06/21 00:35:03;;;;;;;0.10;0.10;;;;;;;12.30;64.04;99784.09;4905516;29;19934;-73
2023/06/21 00:37:30;;;;;;;0.10;0.10;;;;;;;12.20;66.65;99777.56;4905596;29;20060;-74
2023/06/21 00:39:58;;;;;;;0.10;0.10;;;;;;;12.18;67.79;99789.94;4905226;29;20048;-73
2023/06/21 00:42:25;;;;;;;0.10;0.10;;;;;;;12.16;68.02;99792.13;4904201;29;20527;-74
2023/06/21 00:44:51;;;;;;;0.10;0.10;;;;;;;12.14;68.14;99794.34;4909119;29;20051;-72
2023/06/21 00:47:18;;;;;;;0.10;0.10;;;;;;;12.12;68.90;99793.81;4913199;29;20490;-73
2023/06/21 00:49:44;;;;;;;0.10;0.10;;;;;;;12.12;67.34;99799.28;4906244;29;20082;-72
2023/06/21 00:52:11;;;;;;;0.00;0.00;;;;;;;12.13;67.99;99795.44;4903061;29;20516;-71
2023/06/21 00:54:40;;;;;;;0.20;0.10;;;;;;;12.10;68.19;99793.28;4904669;29;20054;-72
2023/06/21 00:57:08;;;;;;;0.10;0.10;;;;;;;12.12;68.83;99789.16;4907120;29;20444;-72
2023/06/21 00:59:35;;;;;;;0.10;0.10;;;;;;;12.16;67.99;99803.09;4907574;29;20108;-72
2023/06/21 01:02:01;;;;;;;0.28;0.20;;;;;;;12.18;69.16;99803.66;4907456;29;20099;-72
2023/06/21 01:04:32;;;;;;;0.10;0.10;;;;;;;12.16;69.54;99803.09;4889983;29;20079;-71
2023/06/21 01:07:09;;;;;;;0.17;0.17;;;;;;;12.15;70.38;99801.47;4905291;29;20056;-72
2023/06/21 01:09:45;;;;;;;0.10;0.10;;;;;;;12.13;70.62;99801.78;4906203;29;20059;-72
2023/06/21 01:12:31;;;;;;;0.10;0.10;;;;;;;12.16;70.92;99805.84;4909723;29;20431;-72
2023/06/21 01:15:02;;;;;;;0.10;0.10;;;;;;;12.16;70.98;99811.31;4907095;29;20457;-73
2023/06/21 01:17:35;;;;;;;0.10;0.10;;;;;;;12.17;70.65;99807.47;4904507;29;20048;-72
2023/06/21 01:20:13;;;;;;;0.10;0.10;;;;;;;12.16;71.65;99814.91;4907074;29;20059;-71
2023/06/21 01:22:59;;;;;;;0.10;0.10;;;;;;;12.16;71.61;99805.84;4908149;29;20550;-72
2023/06/21 01:25:39;;;;;;;0.10;0.10;;;;;;;12.17;72.42;99810.22;4904217;29;20051;-71
2023/06/21 01:28:31;;;;;;;0.22;0.17;;;;;;;12.07;72.77;99800.16;4892403;29;20040;-72
2023/06/21 01:31:01;;;;;;;0.10;0.10;;;;;;;12.19;72.63;99816.25;4908210;29;20426;-73
2023/06/21 01:33:30;;;;;;;0.55;0.10;;;;;;;12.20;72.60;99817.88;4909487;29;20062;-73
2023/06/21 01:36:02;;;;;;;0.10;0.10;;;;;;;12.23;72.28;99820.06;4890161;29;20040;-71
2023/06/21 01:38:28;;;;;;;0.10;0.10;;;;;;;12.29;71.97;99824.38;4904988;29;20052;-72
2023/06/21 01:40:54;;;;;;;0.10;0.10;;;;;;;12.32;71.70;99821.06;4904041;29;20232;-72
2023/06/21 01:43:21;;;;;;;0.32;0.10;;;;;;;12.34;71.11;99827.09;4906761;29;20483;-73
2023/06/21 01:45:48;;;;;;;0.17;0.17;;;;;;;12.39;70.80;99822.69;4901869;29;20063;-73
2023/06/21 01:48:17;;;;;;;0.52;0.20;;;;;;;12.40;69.90;99824.31;4905049;29;20479;-74
2023/06/21 01:50:45;;;;;;;0.20;0.20;;;;;;;12.46;68.58;99823.16;4887798;29;20147;-74
2023/06/21 01:53:13;;;;;;;;;;;;;;;12.48;68.57;99824.53;4919796;29;20467;-73
2023/06/21 01:55:43;;;;;;;0.13;0.13;;;;;;;12.52;68.06;99819.28;4904901;29;19931;-73
2023/06/21 01:58:12;;;;;;;0.10;0.10;;;;;;;12.57;67.93;99824.72;4906319;29;20236;-73
2023/06/21 02:00:39;;;;;;;0.10;0.10;;;;;;;12.61;67.59;99834.00;4904861;29;20512;-72
2023/06/21 02:03:09;;;;;;;0.17;0.17;;;;;;;12.65;67.63;99836.19;4906033;29;20595;-73
2023/06/21 02:05:37;;;;;;;0.10;0.10;;;;;;;12.65;67.41;99827.97;4903212;29;20076;-73
2023/06/21 02:08:04;;;;;;;0.10;0.10;;;;;;;12.70;66.76;99838.88;4907682;29;20048;-73
2023/06/21 02:10:31;;;;;;;0.10;0.10;;;;;;;12.74;67.31;99834.44;4903646;29;20052;-73
2023/06/21 02:12:58;;;;;;;0.10;0.10;;;;;;;12.69;66.53;99821.59;4902910;29;20099;-73
2023/06/21 02:15:24;;;;;;;0.10;0.10;;;;;;;12.81;66.18;99831.38;4902871;29;20060;-73
2023/06/21 02:17:51;;;;;;;0.52;0.20;;;;;;;12.85;65.48;99838.72;4909564;29;20200;-73
2023/06/21 02:20:22;;;;;;;0.10;0.10;;;;;;;12.89;64.79;99834.28;4908521;29;20135;-73
2023/06/21 02:22:49;;;;;;;0.10;0.10;;;;;;;12.91;64.05;99826.59;4907239;29;20048;-72
2023/06/21 02:25:16;;;;;;;0.15;0.15;;;;;;;13.01;64.48;99833.09;4909266;29;20107;-72
2023/06/21 02:27:43;;;;;;;0.10;0.10;;;;;;;13.07;64.29;99831.91;4907019;29;20108;-72
2023/06/21 02:30:12;;;;;;;0.15;0.10;;;;;;;13.11;64.13;99824.75;4910186;29;20063;-72
2023/06/21 02:32:38;;;;;;;0.10;0.10;;;;;;;13.16;65.06;99827.44;4906796;29;20079;-73
2023/06/21 02:35:06;;;;;;;0.10;0.10;;;;;;;13.25;64.86;99838.59;4902759;29;20126;-72
2023/06/21 02:37:32;;;;;;;0.10;0.10;;;;;;;13.28;64.33;99826.22;4906371;29;20075;-73
2023/06/21 02:40:09;;;;;;;0.20;0.20;;;;;;;13.36;63.63;99835.75;4906513;29;20088;-73
2023/06/21 02:42:37;;;;;;;0.10;0.10;;;;;;;13.42;63.54;99838.09;4900960;29;20464;-73
2023/06/21 02:45:05;;;;;;;0.10;0.10;;;;;;;13.49;63.52;99843.28;4905250;29;20048;-73
2023/06/21 02:47:32;;;;;;;0.10;0.10;;;;;;;13.53;63.60;99847.09;4903479;29;20049;-72
2023/06/21 02:49:59;;;;;;;;;;;;;;;13.60;63.71;99846.75;4907470;29;20067;-73
2023/06/21 02:52:25;;;;;;;0.10;0.10;;;;;;;13.66;62.66;99847.47;4908195;29;19927;-73
2023/06/21 02:54:52;;;;;;;0.10;0.10;;;;;;;13.74;62.10;99847.66;4920073;29;20217;-72
2023/06/21 02:57:20;;;;;;;;;;;;;;;13.75;60.83;99849.28;4907024;29;20064;-71
2023/06/21 02:59:46;;;;;;;0.10;0.10;;;;;;;13.89;60.11;99859.53;4923423;29;19927;-72
2023/06/21 03:02:13;;;;;;;0.10;0.10;;;;;;;13.94;59.66;99847.66;4906486;29;20055;-72
2023/06/21 03:04:39;;;;;;;0.10;0.10;;;;;;;14.00;59.61;99858.28;4906278;29;20143;-71
2023/06/21 03:07:07;;;;;;;0.17;0.17;;;;;;;14.07;58.17;99865.38;4891634;29;20541;-71
2023/06/21 03:09:34;;;;;;;0.10;0.10;;;;;;;14.12;58.16;99863.34;4907317;29;20518;-71
2023/06/21 03:12:01;;;;;;;0.20;0.20;;;;;;;14.09;56.39;99847.44;4906768;29;20543;-73
2023/06/21 03:14:29;;;;;;;0.13;0.13;;;;;;;14.20;57.51;99856.34;4906905;29;20062;-71
2023/06/21 03:16:56;;;;;;;0.20;0.20;;;;;;;14.29;56.01;99870.28;4910931;29;20147;-73
2023/06/21 03:19:22;;;;;;;0.10;0.10;;;;;;;14.30;55.21;99858.16;4907992;29;20085;-72
2023/06/21 03:21:49;;;;;;;0.20;0.20;;;;;;;14.27;55.15;99853.22;4888887;29;20134;-73
2023/06/21 03:24:17;;;;;;;0.10;0.10;;;;;;;14.26;54.85;99852.44;4903469;29;20064;-72
2023/06/21 03:26:45;;;;;;;0.10;0.10;;;;;;;14.33;54.55;99858.34;4903947;29;20138;-72
2023/06/21 03:29:11;;;;;;;0.20;0.20;;;;;;;14.32;54.15;99847.66;4900132;29;20170;-72
2023/06/21 03:31:40;;;;;;;0.10;0.10;;;;;;;14.42;54.30;99861.25;4888814;29;20119;-73
2023/06/21 03:34:07;;;;;;;0.65;0.20;;;;;;;14.50;54.04;99862.50;4906215;29;20052;-71
2023/06/21 03:36:33;;;;;;;0.10;0.10;;;;;;;14.53;54.03;99858.34;4902000;29;20120;-71
2023/06/21 03:39:00;;;;;;;0.20;0.20;;;;;;;14.55;54.14;99851.44;4897832;29;20048;-72
2023/06/21 03:41:26;;;;;;;0.13;0.13;;;;;;;14.62;53.83;99856.53;4903967;29;20130;-73
2023/06/21 03:43:54;;;;;;;0.10;0.10;;;;;;;14.71;54.15;99860.25;4871659;29;20084;-72
2023/06/21 03:46:20;;;;;;;0.10;0.10;;;;;;;14.76;54.31;99853.06;4902408;29;20144;-72
2023/06/21 03:48:51;;;;;;;0.20;0.20;;;;;;;14.82;53.80;99860.88;4907014;29;20111;-72
2023/06/21 03:51:18;;;;;;;0.13;0.13;;;;;;;14.84;53.23;99863.34;4892906;29;20098;-72
2023/06/21 03:53:45;;;;;;;0.22;0.20;;;;;;;14.87;53.62;99854.50;4907516;29;20066;-72
2023/06/21 03:56:11;;;;;;;0.10;0.10;;;;;;;14.94;54.09;99857.69;4890818;29;20080;-72
2023/06/21 03:58:38;;;;;;;0.10;0.10;;;;;;;15.09;54.22;99851.06;4907350;29;20131;-72
2023/06/21 04:01:04;;;;;;;0.10;0.10;;;;;;;15.20;53.52;99853.63;4907977;29;20059;-70
2023/06/21 04:03:30;;;;;;;0.20;0.20;;;;;;;15.32;52.19;99853.94;4907871;29;20479;-72
2023/06/21 04:05:58;;;;;;;0.20;0.20;;;;;;;15.50;51.61;99859.66;4907305;29;20076;-72
2023/06/21 04:08:24;;;;;;;0.20;0.20;;;;;;;15.70;50.99;99863.94;4903610;29;20252;-72
2023/06/21 04:10:52;;;;;;;0.20;0.20;;;;;;;15.84;50.24;99858.41;4907215;29;20094;-72
2023/06/21 04:13:17;;;;;;;;;;;;;;;15.90;50.30;99859.94;4908856;29;20524;-72
2023/06/21 04:15:45;;;;;;;0.20;0.20;;;;;;;15.95;50.23;99862.59;4903402;29;19933;-72
2023/06/21 04:18:12;;;;;;;0.20;0.20;;;;;;;15.98;50.16;99863.91;4908464;29;20400;-72
2023/06/21 04:20:38;;;;;;;0.20;0.20;;;;;;;16.03;49.86;99863.81;4907646;29;20059;-72
2023/06/21 04:23:05;;;;;;;0.20;0.20;;;;;;;16.06;50.68;99859.59;4906100;29;20050;-72
2023/06/21 04:25:32;;;;;;;0.25;0.25;;;;;;;16.16;50.24;99873.16;4906957;29;20139;-73
2023/06/21 04:27:59;;;;;;;0.20;0.20;;;;;;;16.14;49.48;99862.44;4904948;29;20048;-73
2023/06/21 04:30:25;;;;;;;0.20;0.20;;;;;;;16.19;50.36;99869.78;4905473;29;20070;-74
2023/06/21 04:32:51;;;;;;;0.20;0.20;;;;;;;16.28;49.12;99862.41;4906307;29;20539;-74
2023/06/21 04:35:18;;;;;;;0.20;0.20;;;;;;;16.52;49.72;99866.81;4907310;29;20139;-73
2023/06/21 04:37:46;;;;;;;0.20;0.20;;;;;;;16.66;48.16;99874.22;4907000;29;20043;-73
2023/06/21 04:40:16;;;;;;;0.28;0.28;;;;;;;16.76;47.42;99871.19;4904341;29;20082;-73
2023/06/21 04:42:43;;;;;;;0.30;0.30;;;;;;;16.89;46.60;99868.69;4905400;29;20051;-73
2023/06/21 04:45:10;;;;;;;0.20;0.20;;;;;;;17.01;45.36;99875.28;4905960;29;20429;-74
2023/06/21 04:47:37;;;;;;;0.25;0.20;;;;;;;17.01;44.50;99871.69;4907792;29;20312;-73
2023/06/21 04:50:05;;;;;;;0.30;0.30;;;;;;;16.83;44.56;99856.94;4890313;29;20115;-73
2023/06/21 04:52:32;;;;;;;0.20;0.20;;;;;;;16.97;44.54;99867.91;4906589;29;20538;-73
2023/06/21 04:55:01;;;;;;;0.10;0.10;;;;;;;17.13;43.02;99871.91;4905163;29;20071;-73
2023/06/21 04:57:30;;;;;;;0.20;0.20;;;;;;;17.11;43.55;99865.91;4906703;29;20332;-73
2023/06/21 04:59:56;;;;;;;0.20;0.20;;;;;;;17.08;43.77;99865.72;4905973;29;20048;-73
2023/06/21 05:02:22;;;;;;;0.20;0.20;;;;;;;17.31;43.30;99869.22;4916818;29;20405;-73
2023/06/21 05:04:48;;;;;;;0.20;0.20;;;;;;;17.63;42.51;99856.16;4921705;29;20111;-73
2023/06/21 05:07:14;;;;;;;0.30;0.30;;;;;;;17.74;41.99;99856.72;4906114;29;20111;-74
2023/06/21 05:09:41;;;;;;;0.20;0.20;;;;;;;17.84;40.15;99850.84;4908419;29;20094;-73
2023/06/21 05:12:09;;;;;;;0.20;0.20;;;;;;;17.75;40.96;99850.03;4907311;29;20075;-73
2023/06/21 05:14:36;;;;;;;0.20;0.20;;;;;;;17.75;40.88;99863.88;4907024;29;20062;-73
2023/06/21 05:17:03;;;;;;;0.20;0.20;;;;;;;17.68;40.49;99856.03;4906713;29;20115;-74
2023/06/21 05:19:29;;;;;;;0.30;0.30;;;;;;;17.34;39.77;99823.56;4906265;29;20630;-73
2023/06/21 05:21:56;;;;;;;0.20;0.20;;;;;;;17.63;40.23;99863.66;4908297;29;20056;-73
2023/06/21 05:24:22;;;;;;;0.28;0.28;;;;;;;17.72;40.50;99861.75;4908547;29;20044;-73
2023/06/21 05:26:48;;;;;;;0.20;0.20;;;;;;;17.82;40.86;99855.09;4907272;29;20047;-73
2023/06/21 05:29:14;;;;;;;0.20;0.20;;;;;;;17.78;39.73;99857.69;4904210;29;20052;-72
2023/06/21 05:31:42;;;;;;;0.20;0.20;;;;;;;17.83;39.37;99867.78;4901806;29;20071;-73
2023/06/21 05:34:09;;;;;;;0.30;0.30;;;;;;;17.99;39.15;99860.66;4874473;29;20048;-73
2023/06/21 05:36:35;;;;;;;0.20;0.20;;;;;;;18.06;38.73;99856.59;4904867;29;20072;-73
2023/06/21 05:39:02;;;;;;;0.30;0.30;;;;;;;18.22;39.56;99865.25;4904696;29;20083;-72
2023/06/21 05:41:28;;;;;;;0.30;0.30;;;;;;;18.33;38.61;99860.22;4902695;29;20056;-71
2023/06/21 05:43:54;;;;;;;0.30;0.30;;;;;;;18.34;39.05;99870.13;4908739;29;20055;-71
2023/06/21 05:46:21;;;;;;;0.20;0.20;;;;;;;18.42;38.42;99861.03;4903084;29;20052;-72
2023/06/21 05:48:48;;;;;;;0.30;0.30;;;;;;;18.54;38.66;99863.94;4904004;29;20071;-71
2023/06/21 05:51:14;;;;;;;0.20;0.20;;;;;;;18.57;37.64;99856.94;4903260;29;20443;-72
2023/06/21 05:53:41;;;;;;;0.20;0.20;;;;;;;18.41;37.11;99859.38;4892272;29;20059;-71
2023/06/21 05:56:07;;;;;;;0.20;0.20;;;;;;;18.08;37.42;99865.41;4907084;29;20048;-72
2023/06/21 05:58:33;;;;;;;0.30;0.30;;;;;;;17.80;38.12;99872.00;4892419;29;20048;-71
2023/06/21 06:01:00;;;;;;;0.20;0.20;;;;;;;17.61;39.13;99875.03;4908326;29;20048;-72
2023/06/21 06:03:26;;;;;;;0.20;0.20;;;;;;;17.43;38.61;99869.44;4906704;29;20052;-71
2023/06/21 06:05:54;;;;;;;0.22;0.22;;;;;;;17.21;39.64;99881.38;4908699;29;20079;-72
2023/06/21 06:08:20;;;;;;;0.20;0.20;;;;;;;17.27;39.61;99882.06;4909390;29;20143;-72
2023/06/21 06:10:46;;;;;;;0.28;0.28;;;;;;;17.34;39.88;99870.56;4909710;29;20071;-71
2023/06/21 06:13:12;;;;;;;0.20;0.20;;;;;;;17.35;40.48;99866.66;4910698;29;20445;-74
2023/06/21 06:15:38;;;;;;;0.20;0.20;;;;;;;17.35;39.70;99869.41;4910920;29;20060;-73
2023/06/21 06:18:05;;;;;;;0.30;0.30;;;;;;;17.43;39.07;99872.22;4910635;29;20547;-73
2023/06/21 06:20:32;;;;;;;0.30;0.30;;;;;;;17.53;39.15;99860.03;4906222;29;20055;-73
2023/06/21 06:23:00;;;;;;;0.20;0.20;;;;;;;17.74;37.75;99858.66;4902735;29;20062;-73
2023/06/21 06:25:26;;;;;;;0.28;0.28;;;;;;;17.79;36.98;99872.31;4905446;29;20111;-73
2023/06/21 06:27:52;;;;;;;0.20;0.20;;;;;;;17.80;36.40;99871.19;4910915;29;20052;-73
2023/06/21 06:30:19;;;;;;;0.22;0.22;;;;;;;17.68;36.81;99875.38;4896925;29;20052;-73
2023/06/21 06:32:45;;;;;;;0.30;0.30;;;;;;;17.72;37.07;99873.59;4927689;29;20103;-73
2023/06/21 06:35:11;;;;;;;0.47;0.47;;;;;;;17.91;36.57;99880.78;4913213;29;20056;-73
2023/06/21 06:37:37;;;;;;;0.30;0.30;;;;;;;18.07;36.17;99869.31;4913044;29;20288;-73
2023/06/21 06:40:06;;;;;;;0.20;0.20;;;;;;;18.26;37.07;99877.31;4911869;29;20056;-73
2023/06/21 06:42:32;;;;;;;0.30;0.30;;;;;;;18.30;35.56;99875.50;4926993;29;20052;-73
2023/06/21 06:44:58;;;;;;;0.30;0.30;;;;;;;18.31;35.27;99862.50;4911321;29;20600;-72
2023/06/21 06:47:28;;;;;;;0.30;0.30;;;;;;;18.39;35.37;99872.72;4926945;29;20147;-72
2023/06/21 06:49:54;;;;;;;0.30;0.30;;;;;;;18.41;35.74;99879.59;4913728;29;20079;-72
2023/06/21 06:52:20;;;;;;;0.30;0.30;;;;;;;18.55;35.01;99873.06;4912926;29;20591;-71
2023/06/21 06:54:46;;;;;;;0.30;0.30;;;;;;;18.71;34.91;99865.88;4912022;29;20051;-73
2023/06/21 06:57:14;;;;;;;0.40;0.40;;;;;;;18.66;34.19;99879.91;4913323;29;20051;-72
2023/06/21 06:59:40;;;;;;;0.30;0.30;;;;;;;18.66;33.68;99876.31;4912932;29;20048;-73
2023/06/21 07:02:07;;;;;;;0.30;0.30;;;;;;;18.80;33.79;99888.00;4911443;29;20567;-73
2023/06/21 07:04:33;;;;;;;0.30;0.30;;;;;;;18.89;33.84;99885.22;4896087;29;20052;-73
2023/06/21 07:07:01;;;;;;;0.30;0.30;;;;;;;18.90;33.41;99880.50;4911132;29;20052;-73
2023/06/21 07:09:28;;;;;;;0.30;0.30;;;;;;;18.99;33.22;99893.22;4912974;29;20052;-73
2023/06/21 07:11:59;;;;;;;0.30;0.30;;;;;;;19.11;32.82;99883.41;4911045;29;20370;-73
2023/06/21 07:14:26;;;;;;;0.40;0.40;;;;;;;19.22;33.52;99887.44;4927429;29;20167;-73
2023/06/21 07:16:52;;;;;;;0.30;0.30;;;;;;;19.39;32.85;99881.03;4912500;29;20138;-72
2023/06/21 07:19:18;;;;;;;0.30;0.30;;;;;;;19.48;32.71;99886.53;4911073;29;20048;-74
2023/06/21 07:21:45;;;;;;;0.30;0.30;;;;;;;19.65;31.99;99879.28;4911424;29;20063;-73
2023/06/21 07:24:11;;;;;;;0.30;0.30;;;;;;;19.66;31.34;99880.91;4913876;29;20054;-73
2023/06/21 07:26:38;;;;;;;0.30;0.30;;;;;;;19.63;31.86;99887.91;4911873;29;20048;-73
2023/06/21 07:29:04;;;;;;;0.32;0.32;;;;;;;19.72;31.63;99881.53;4912579;29;20068;-72
2023/06/21 07:31:32;;;;;;;0.30;0.30;;;;;;;19.78;31.58;99885.72;4911586;29;20060;-73
2023/06/21 07:33:59;;;;;;;0.30;0.30;;;;;;;19.93;31.28;99887.94;4896210;29;20794;-73
2023/06/21 07:36:25;;;;;;;0.30;0.30;;;;;;;20.14;30.81;99892.72;4913857;29;20044;-73
2023/06/21 07:38:51;;;;;;;0.30;0.30;;;;;;;20.21;31.05;99889.38;4911168;29;20056;-73
2023/06/21 07:41:18;;;;;;;0.30;0.30;;;;;;;20.15;30.54;99890.75;4912915;29;20424;-73
2023/06/21 07:43:44;;;;;;;0.30;0.30;;;;;;;20.18;30.90;99890.91;4910155;29;20052;-72
2023/06/21 07:46:10;;;;;;;0.40;0.40;;;;;;;20.44;30.14;99898.19;4909331;29;20056;-74
2023/06/21 07:48:39;;;;;;;0.30;0.30;;;;;;;20.68;29.62;99886.41;4910639;29;20346;-72
2023/06/21 07:51:05;;;;;;;0.30;0.30;;;;;;;20.89;28.87;99884.75;4911375;29;20296;-72
2023/06/21 07:53:32;;;;;;;0.32;0.32;;;;;;;21.00;28.95;99887.91;4910366;29;20055;-72
2023/06/21 07:56:00;;;;;;;0.30;0.30;;;;;;;20.96;27.96;99888.56;4912448;29;20064;-73
2023/06/21 07:58:26;;;;;;;0.30;0.30;;;;;;;20.81;28.46;99894.78;4911286;29;20051;-72
2023/06/21 08:00:53;;;;;;;0.40;0.40;;;;;;;20.82;28.74;99879.75;4908664;29;20059;-73
2023/06/21 08:03:19;;;;;;;0.30;0.30;;;;;;;20.87;28.11;99893.44;4912956;29;20300;-73
2023/06/21 08:05:47;;;;;;;0.40;0.40;;;;;;;20.97;28.17;99900.53;4912309;29;20108;-73
2023/06/21 08:08:15;;;;;;;0.30;0.30;;;;;;;21.07;27.96;99893.72;4876833;29;20045;-72
2023/06/21 08:10:41;;;;;;;0.35;0.35;;;;;;;21.11;27.98;99903.81;4892119;29;20401;-73
2023/06/21 08:13:08;;;;;;;0.40;0.40;;;;;;;21.45;27.41;99889.81;4891683;29;20040;-73
2023/06/21 08:15:34;;;;;;;0.40;0.40;;;;;;;21.72;26.18;99895.88;4926134;29;20063;-72
2023/06/21 08:18:00;;;;;;;0.37;0.37;;;;;;;22.15;26.10;99888.06;4927871;29;20112;-73
2023/06/21 08:20:26;;;;;;;0.40;0.40;;;;;;;22.36;25.65;99887.88;4911122;29;20064;-72
2023/06/21 08:22:54;;;;;;;0.40;0.40;;;;;;;22.38;25.50;99881.97;4911150;29;20192;-71
2023/06/21 08:25:20;;;;;;;0.40;0.40;;;;;;;22.49;25.14;99885.09;4910732;29;20052;-73
2023/06/21 08:27:46;;;;;;;0.90;0.40;;;;;;;22.44;25.16;99891.69;4928532;29;20056;-72
2023/06/21 08:30:13;;;;;;;0.40;0.40;;;;;;;22.64;25.60;99887.13;4908657;29;20564;-73
2023/06/21 08:32:39;;;;;;;0.40;0.40;;;;;;;23.04;25.18;99887.41;4909987;29;20095;-73
2023/06/21 08:35:06;;;;;;;0.40;0.40;;;;;;;23.41;24.96;99900.28;4878528;29;20055;-73
2023/06/21 08:37:32;;;;;;;0.40;0.40;;;;;;;23.40;24.78;99893.91;4911635;29;20048;-72
2023/06/21 08:39:59;;;;;;;0.40;0.40;;;;;;;23.55;25.06;99894.28;4912745;29;20071;-73
2023/06/21 08:42:26;;;;;;;0.40;0.40;;;;;;;23.75;24.78;99884.78;4910429;29;20405;-73
2023/06/21 08:44:54;;;;;;;0.50;0.50;;;;;;;24.17;23.88;99877.78;4910758;29;20227;-73
2023/06/21 08:47:22;;;;;;;0.50;0.50;;;;;;;24.89;23.39;99883.25;4911455;29;20058;-73
2023/06/21 08:49:49;;;;;;;0.50;0.50;;;;;;;25.40;22.95;99870.13;4893309;29;20143;-73
2023/06/21 08:52:19;;;;;;;0.50;0.50;;;;;;;25.43;23.05;99891.75;4911654;29;20056;-73
2023/06/21 08:54:50;;;;;;;0.50;0.50;;;;;;;25.33;22.87;99893.19;4909134;29;20040;-72
2023/06/21 08:57:22;;;;;;;0.40;0.40;;;;;;;25.58;22.67;99884.44;4912772;29;20526;-73
2023/06/21 08:59:53;;;;;;;0.50;0.50;;;;;;;25.80;22.56;99879.16;4909913;29;20056;-73
2023/06/21 09:02:29;;;;;;;0.50;0.50;;;;;;;25.71;23.15;99880.25;4911520;29;20059;-73
2023/06/21 09:04:59;;;;;;;0.50;0.50;;;;;;;25.66;22.84;99885.38;4909829;29;20052;-73
2023/06/21 09:07:27;;;;;;;0.50;0.50;;;;;;;25.93;22.65;99888.97;4908354;29;20055;-73
2023/06/21 09:09:56;;;;;;;0.50;0.50;;;;;;;26.66;22.12;99878.72;4909899;29;20143;-73
2023/06/21 09:12:26;;;;;;;0.60;0.60;;;;;;;27.15;21.08;99885.25;4909284;29;20052;-73
2023/06/21 09:14:53;;;;;;;0.50;0.50;;;;;;;27.82;20.79;99885.41;4909219;29;20092;-73
2023/06/21 09:17:22;;;;;;;0.30;0.30;;;;;;;27.27;20.77;99862.53;4910731;29;20044;-72
2023/06/21 09:19:48;;;;;;;0.30;0.30;;;;;;;24.95;23.16;99875.34;4893278;29;20144;-72
2023/06/21 09:22:14;;;;;;;0.60;0.60;;;;;;;24.11;24.48;99875.63;4894502;29;20040;-74
2023/06/21 09:24:40;;;;;;;0.60;0.60;;;;;;;25.14;23.37;99878.09;4911841;29;20052;-73
2023/06/21 09:27:07;;;;;;;0.60;0.60;;;;;;;26.11;22.10;99878.03;4909083;29;20056;-72
2023/06/21 09:29:35;;;;;;;0.60;0.60;;;;;;;26.99;21.41;99880.69;4908257;29;20054;-73
2023/06/21 09:32:01;;;;;;;0.60;0.60;;;;;;;27.89;20.56;99869.41;4909252;29;20067;-72
2023/06/21 09:34:28;;;;;;;0.70;0.70;;;;;;;28.06;20.04;99864.28;4906753;29;20067;-73
2023/06/21 09:36:54;;;;;;;0.70;0.70;;;;;;;27.99;20.08;99872.69;4909974;29;20103;-72
2023/06/21 09:39:24;;;;;;;0.70;0.70;;;;;;;28.22;19.64;99871.63;4910724;29;20048;-72
2023/06/21 09:41:50;;;;;;;0.75;0.75;;;;;;;28.52;19.02;99876.16;4909355;29;20048;-72
2023/06/21 09:44:20;;;;;;;0.70;0.70;;;;;;;28.75;18.84;99866.59;4908726;29;20142;-73
2023/06/21 09:46:48;;;;;;;0.70;0.70;;;;;;;28.57;19.11;99881.41;4907751;29;20080;-72
2023/06/21 09:49:16;;;;;;;0.70;0.70;;;;;;;28.48;19.76;99875.34;4909296;29;20649;-72
2023/06/21 09:51:43;;;;;;;0.80;0.80;;;;;;;28.66;19.37;99881.03;4909885;29;20058;-73
2023/06/21 09:54:09;;;;;;;0.70;0.70;;;;;;;29.21;19.29;99882.78;4891856;29;20564;-71
2023/06/21 09:56:37;;;;;;;0.80;0.80;;;;;;;29.76;18.69;99872.31;4909056;29;20052;-74
2023/06/21 09:59:12;;;;;;;0.80;0.80;;;;;;;30.39;17.70;99868.91;4908961;29;20611;-73
2023/06/21 10:01:58;;;;;;;0.90;0.90;;;;;;;30.46;17.36;99868.09;4907439;29;20051;-74
2023/06/21 10:04:42;;;;;;;0.90;0.90;;;;;;;30.03;17.50;99871.88;4918869;29;20100;-73
2023/06/21 10:07:14;;;;;;;0.90;0.90;;;;;;;29.63;17.13;99868.31;4904092;29;20056;-73
2023/06/21 10:09:41;;;;;;;0.90;0.90;;;;;;;29.56;17.95;99875.56;4909701;29;20056;-73
2023/06/21 10:12:11;;;;;;;0.90;0.90;;;;;;;29.92;17.68;99863.44;4910023;29;20067;-71
2023/06/21 10:14:39;;;;;;;0.90;0.90;;;;;;;30.15;17.36;99870.63;4924506;29;20139;-73
2023/06/21 10:17:08;;;;;;;1.00;1.00;;;;;;;30.37;17.49;99879.03;4909137;29;20293;-73
2023/06/21 10:19:35;;;;;;;0.90;0.90;;;;;;;30.82;17.11;99872.75;4909179;29;20056;-71
2023/06/21 10:22:06;;;;;;;1.00;1.00;;;;;;;30.92;17.26;99876.72;4911218;29;20060;-72
2023/06/21 10:24:37;;;;;;;0.90;0.90;;;;;;;31.17;16.83;99870.91;4906394;29;20440;-72
2023/06/21 10:27:06;;;;;;;1.00;1.00;;;;;;;31.09;16.25;99869.34;4907108;29;20532;-72
2023/06/21 10:29:32;;;;;;;1.00;1.00;;;;;;;31.16;15.88;99869.28;4907768;29;20052;-71
2023/06/21 10:32:00;;;;;;;0.98;0.98;;;;;;;31.03;16.40;99868.19;4907780;29;20059;-73
2023/06/21 10:34:39;;;;;;;1.10;1.10;;;;;;;31.10;16.33;99868.94;4893478;29;20052;-73
2023/06/21 10:37:12;;;;;;;1.00;1.00;;;;;;;31.50;16.22;99859.38;4910355;29;20052;-72
2023/06/21 10:39:39;;;;;;;1.10;1.10;;;;;;;32.20;15.58;99865.94;4913093;29;20508;-74
2023/06/21 10:42:06;;;;;;;1.10;1.10;;;;;;;32.71;15.15;99874.59;4912787;29;20060;-73
2023/06/21 10:44:33;;;;;;;1.10;1.10;;;;;;;33.04;15.04;99857.94;4894881;29;20044;-72
2023/06/21 10:47:00;;;;;;;1.10;1.10;;;;;;;33.23;14.92;99872.59;4914416;29;20103;-71
2023/06/21 10:49:30;;;;;;;0.90;0.90;;;;;;;33.35;15.05;99860.69;4894549;29;20075;-72
2023/06/21 10:51:57;;;;;;;0.40;0.40;;;;;;;31.11;16.60;99870.53;4914690;29;20048;-73
2023/06/21 10:54:25;;;;;;;1.10;1.10;;;;;;;29.05;18.74;99859.84;4911399;29;20079;-72
2023/06/21 10:56:52;;;;;;;1.10;1.10;;;;;;;29.72;18.35;99861.03;4909521;29;20050;-72
2023/06/21 10:59:23;;;;;;;1.10;1.10;;;;;;;30.37;17.66;99859.28;4911562;29;20060;-72
2023/06/21 11:01:50;;;;;;;1.20;1.20;;;;;;;30.80;17.71;99858.25;4909701;29;20139;-72
2023/06/21 11:04:16;;;;;;;1.10;1.10;;;;;;;31.58;17.02;99860.09;4909029;29;20080;-72
2023/06/21 11:06:44;;;;;;;0.82;0.82;;;;;;;31.29;16.92;99860.34;4913591;29;20056;-73
2023/06/21 11:09:12;;;;;;;1.30;1.20;;;;;;;31.20;16.66;99870.06;4912713;29;20052;-72
2023/06/21 11:11:47;;;;;;;0.50;0.50;;;;;;;30.78;16.56;99872.78;4908883;29;20884;-71
2023/06/21 11:14:13;;;;;;;0.43;0.43;;;;;;;28.81;18.45;99871.47;4909787;29;20071;-73
2023/06/21 11:16:40;;;;;;;0.50;0.50;;;;;;;27.06;19.77;99873.56;4913177;29;20048;-72
2023/06/21 11:19:08;;;;;;;0.50;0.50;;;;;;;26.64;20.74;99869.91;4909896;29;20055;-72
2023/06/21 11:21:46;;;;;;;1.30;1.20;;;;;;;26.73;20.43;99874.00;4909590;29;20048;-72
2023/06/21 11:24:18;;;;;;;0.88;0.88;;;;;;;28.73;18.92;99876.25;4908965;29;20052;-73
2023/06/21 11:26:53;;;;;;;0.70;0.70;;;;;;;29.74;17.49;99866.28;4922879;29;20095;-72
2023/06/21 11:29:19;;;;;;;1.23;1.20;;;;;;;29.89;17.47;99872.66;4904331;29;20048;-73
2023/06/21 11:31:46;;;;;;;0.50;0.50;;;;;;;30.59;16.93;99865.59;4910671;29;20090;-73
2023/06/21 11:34:23;;;;;;;0.50;0.50;;;;;;;29.18;18.03;99863.84;4910322;29;20064;-73
2023/06/21 11:36:50;;;;;;;1.30;1.20;;;;;;;28.70;18.67;99862.94;4911720;29;20067;-72